createdAt,value
2019-01-11T00:01:10.445Z,33.70
2019-01-11T00:03:39.805Z,32.30
2019-01-11T00:06:09.367Z,32.37
2019-01-11T00:08:38.554Z,32.23
2019-01-11T00:11:07.630Z,33.10
2019-01-11T00:13:36.701Z,30.87
2019-01-11T00:16:06.092Z,29.30
2019-01-11T00:18:34.956Z,31.20
2019-01-11T00:21:05.572Z,31.63
2019-01-11T00:23:34.752Z,34.13
2019-01-11T00:26:03.612Z,31.80
2019-01-11T00:28:32.524Z,31.27
2019-01-11T00:31:01.346Z,31.03
2019-01-11T00:33:30.180Z,31.73
2019-01-11T00:35:59.262Z,31.10
2019-01-11T00:38:28.441Z,32.53
2019-01-11T00:40:57.348Z,33.17
2019-01-11T00:43:26.232Z,33.73
2019-01-11T00:45:55.240Z,32.90
2019-01-11T00:48:24.400Z,33.37
2019-01-11T00:50:53.264Z,30.93
2019-01-11T00:53:22.160Z,32.63
2019-01-11T00:55:51.100Z,32.93
2019-01-11T00:58:19.984Z,35.10
2019-01-11T01:00:48.860Z,34.80
2019-01-11T01:03:17.688Z,30.50
2019-01-11T01:05:46.780Z,30.77
2019-01-11T01:09:18.452Z,32.85
2019-01-11T01:11:47.416Z,32.97
2019-01-11T01:14:16.364Z,32.70
2019-01-11T01:16:47.455Z,32.33
2019-01-11T01:19:20.025Z,35.40
2019-01-11T01:21:45.500Z,34.43
2019-01-11T01:24:14.680Z,34.87
2019-01-11T01:26:44.788Z,34.00
2019-01-11T01:29:12.560Z,36.47
2019-01-11T01:31:41.498Z,33.27
2019-01-11T01:34:10.409Z,34.67
2019-01-11T01:36:39.292Z,35.00
2019-01-11T01:39:08.711Z,35.53
2019-01-11T01:41:37.603Z,33.27
2019-01-11T01:44:06.499Z,35.83
2019-01-11T01:46:37.192Z,38.40
2019-01-11T01:49:06.100Z,35.13
2019-01-11T01:51:35.283Z,36.17
2019-01-11T01:54:04.203Z,34.33
2019-01-11T01:56:33.092Z,37.70
2019-01-11T01:59:01.990Z,33.03
2019-01-11T02:01:30.975Z,34.97
2019-01-11T02:04:00.951Z,33.87
2019-01-11T02:06:30.395Z,35.53
2019-01-11T02:08:59.307Z,36.00
2019-01-11T02:12:31.864Z,36.40
2019-01-11T02:15:00.823Z,34.63
2019-01-11T02:17:29.765Z,35.00
2019-01-11T02:19:58.623Z,35.70
2019-01-11T02:22:27.567Z,37.83
2019-01-11T02:24:56.391Z,36.37
2019-01-11T02:27:25.531Z,35.80
2019-01-11T02:29:54.783Z,34.93
2019-01-11T02:32:23.631Z,33.13
2019-01-11T02:34:53.252Z,37.70
2019-01-11T02:37:22.166Z,36.23
2019-01-11T02:39:51.076Z,37.00
2019-01-11T02:42:19.943Z,35.87
2019-01-11T02:44:48.856Z,36.27
2019-01-11T02:47:17.727Z,35.83
2019-01-11T02:49:46.612Z,35.63
2019-01-11T02:52:15.495Z,36.80
2019-01-11T02:54:44.370Z,35.87
2019-01-11T02:57:13.223Z,35.87
2019-01-11T02:59:42.079Z,34.83
2019-01-11T03:03:13.603Z,34.53
2019-01-11T03:05:42.901Z,33.03
2019-01-11T03:08:11.755Z,32.90
2019-01-11T03:10:40.634Z,36.47
2019-01-11T03:13:09.575Z,33.27
2019-01-11T03:15:38.555Z,33.60
2019-01-11T03:18:07.555Z,34.67
2019-01-11T03:20:36.770Z,34.57
2019-01-11T03:23:05.672Z,34.77
2019-01-11T03:25:34.634Z,35.37
2019-01-11T03:28:03.530Z,36.87
2019-01-11T03:30:32.512Z,35.00
2019-01-11T03:33:01.408Z,36.20
2019-01-11T03:35:30.286Z,35.63
2019-01-11T03:37:59.443Z,37.87
2019-01-11T03:40:28.466Z,35.93
2019-01-11T03:42:57.294Z,35.17
2019-01-11T03:45:26.323Z,34.83
2019-01-11T03:47:55.678Z,35.67
2019-01-11T03:50:25.196Z,33.43
2019-01-11T03:52:54.506Z,32.43
2019-01-11T03:55:23.443Z,34.87
2019-01-11T03:57:52.410Z,37.97
2019-01-11T04:00:24.725Z,35.50
2019-01-11T04:02:53.682Z,37.17
2019-01-11T04:05:22.614Z,36.00
2019-01-11T04:07:51.762Z,34.27
2019-01-11T04:10:22.642Z,37.63
2019-01-11T04:12:51.802Z,35.23
2019-01-11T04:15:21.790Z,34.88
2019-01-11T04:18:59.018Z,36.50
2019-01-11T04:21:28.727Z,34.63
2019-01-11T04:23:57.583Z,35.97
2019-01-11T04:26:26.506Z,34.77
2019-01-11T04:28:55.634Z,30.23
2019-01-11T04:31:24.490Z,34.23
2019-01-11T04:33:53.895Z,33.47
2019-01-11T04:36:22.742Z,33.67
2019-01-11T04:38:55.226Z,34.50
2019-01-11T04:41:24.066Z,34.57
2019-01-11T04:43:53.474Z,34.47
2019-01-11T04:46:22.270Z,33.97
2019-01-11T04:48:51.135Z,34.27
2019-01-11T04:51:20.046Z,32.73
2019-01-11T04:53:48.874Z,31.00
2019-01-11T04:56:17.666Z,34.95
2019-01-11T04:58:46.529Z,34.33
2019-01-11T05:01:15.394Z,33.97
2019-01-11T05:03:44.234Z,32.90
2019-01-11T05:06:13.126Z,32.40
2019-01-11T05:08:42.302Z,33.20
2019-01-11T05:11:11.363Z,33.02
2019-01-11T05:13:42.954Z,34.50
2019-01-11T05:16:11.817Z,32.30
2019-01-11T05:18:40.616Z,30.93
2019-01-11T05:21:09.448Z,32.07
2019-01-11T05:23:38.639Z,34.23
2019-01-11T05:26:07.526Z,33.10
2019-01-11T05:28:36.374Z,31.93
2019-01-11T05:31:05.258Z,32.57
2019-01-11T05:33:34.113Z,31.90
2019-01-11T05:36:03.189Z,30.43
2019-01-11T05:38:32.030Z,32.33
2019-01-11T05:41:00.946Z,32.23
2019-01-11T05:43:29.739Z,34.17
2019-01-11T05:45:58.526Z,35.80
2019-01-11T05:48:27.585Z,33.80
2019-01-11T05:50:56.406Z,30.93
2019-01-11T05:53:25.267Z,35.00
2019-01-11T05:55:55.086Z,33.93
2019-01-11T05:58:31.726Z,34.37
2019-01-11T06:01:00.715Z,34.57
2019-01-11T06:03:29.575Z,32.83
2019-01-11T06:05:58.629Z,34.90
2019-01-11T06:08:28.414Z,34.67
2019-01-11T06:10:57.231Z,35.93
2019-01-11T06:13:26.397Z,33.43
2019-01-11T06:15:55.634Z,34.40
2019-01-11T06:18:24.521Z,34.47
2019-01-11T06:20:53.321Z,39.30
2019-01-11T06:23:22.210Z,36.37
2019-01-11T06:25:51.080Z,37.73
2019-01-11T06:28:19.829Z,36.27
2019-01-11T06:30:48.490Z,35.70
2019-01-11T06:33:17.093Z,37.97
2019-01-11T06:35:46.113Z,38.33
2019-01-11T06:38:14.725Z,35.67
2019-01-11T06:40:43.681Z,38.13
2019-01-11T06:43:12.801Z,37.30
2019-01-11T06:45:41.531Z,38.77
2019-01-11T06:48:14.489Z,36.87
2019-01-11T06:50:43.461Z,39.33
2019-01-11T06:53:12.265Z,39.17
2019-01-11T06:55:41.394Z,37.13
2019-01-11T06:58:10.517Z,36.53
2019-01-11T07:00:39.865Z,37.90
2019-01-11T07:03:08.841Z,35.87
2019-01-11T07:05:37.915Z,36.03
2019-01-11T07:08:07.108Z,36.50
2019-01-11T07:10:35.961Z,37.63
2019-01-11T07:13:05.789Z,35.47
2019-01-11T07:15:34.953Z,35.53
2019-01-11T07:18:03.736Z,36.00
2019-01-11T07:20:33.337Z,38.50
2019-01-11T07:23:02.905Z,35.93
2019-01-11T07:25:32.516Z,38.33
2019-01-11T07:28:03.041Z,35.50
2019-01-11T07:30:36.984Z,36.07
2019-01-11T07:33:05.983Z,36.20
2019-01-11T07:35:40.777Z,35.83
2019-01-11T07:38:09.913Z,34.27
2019-01-11T07:40:38.696Z,32.00
2019-01-11T07:43:07.453Z,36.37
2019-01-11T07:45:36.197Z,33.20
2019-01-11T07:48:05.601Z,35.77
2019-01-11T07:50:34.304Z,32.90
2019-01-11T07:53:03.037Z,34.73
2019-01-11T07:55:33.074Z,33.17
2019-01-11T07:58:02.120Z,36.10
2019-01-11T08:00:31.092Z,33.97
2019-01-11T08:02:59.777Z,35.27
2019-01-11T08:05:28.583Z,31.73
2019-01-11T08:07:57.309Z,32.50
2019-01-11T08:10:26.177Z,33.20
2019-01-11T08:12:55.049Z,33.80
2019-01-11T08:15:23.852Z,34.00
2019-01-11T08:17:52.576Z,30.70
2019-01-11T08:20:21.588Z,35.17
2019-01-11T08:22:50.390Z,33.20
2019-01-11T08:25:19.460Z,34.10
2019-01-11T08:27:48.284Z,32.40
2019-01-11T08:30:17.100Z,32.50
2019-01-11T08:32:46.140Z,34.63
2019-01-11T08:35:15.048Z,32.10
2019-01-11T08:37:44.056Z,35.00
2019-01-11T08:40:12.873Z,33.00
2019-01-11T08:42:41.744Z,31.37
2019-01-11T08:45:11.307Z,30.80
2019-01-11T08:47:40.156Z,30.07
2019-01-11T08:50:13.479Z,32.60
2019-01-11T08:52:42.576Z,30.93
2019-01-11T08:55:11.424Z,31.90
2019-01-11T08:57:40.239Z,31.70
2019-01-11T09:00:10.876Z,31.00
2019-01-11T09:02:39.632Z,28.83
2019-01-11T09:05:08.964Z,32.33
2019-01-11T09:07:38.036Z,26.30
2019-01-11T09:10:07.800Z,31.40
2019-01-11T09:12:36.591Z,29.63
2019-01-11T09:15:05.808Z,28.60
2019-01-11T09:17:35.482Z,28.87
2019-01-11T09:20:05.628Z,28.17
2019-01-11T09:22:34.348Z,26.80
2019-01-11T09:25:02.909Z,25.77
2019-01-11T09:27:31.436Z,24.67
2019-01-11T09:30:00.216Z,25.30
2019-01-11T09:32:28.640Z,26.00
2019-01-11T09:34:57.183Z,26.60
2019-01-11T09:37:25.669Z,26.43
2019-01-11T09:39:54.720Z,25.00
2019-01-11T09:42:23.539Z,23.23
2019-01-11T09:44:52.344Z,21.87
2019-01-11T09:47:21.155Z,22.83
2019-01-11T09:49:49.695Z,25.00
2019-01-11T09:52:18.608Z,26.13
2019-01-11T09:54:47.103Z,26.60
2019-01-11T09:57:16.424Z,26.13
2019-01-11T09:59:44.915Z,18.30
2019-01-11T10:02:20.524Z,22.57
2019-01-11T10:04:49.728Z,23.87
2019-01-11T10:07:22.443Z,19.13
2019-01-11T10:09:51.547Z,20.13
2019-01-11T10:12:20.411Z,16.80
2019-01-11T10:14:48.927Z,22.67
2019-01-11T10:17:18.223Z,23.40
2019-01-11T10:19:47.079Z,23.00
2019-01-11T10:22:15.591Z,22.07
2019-01-11T10:24:44.115Z,22.20
2019-01-11T10:27:12.735Z,19.73
2019-01-11T10:29:41.567Z,22.37
2019-01-11T10:32:10.395Z,20.50
2019-01-11T10:34:38.943Z,19.47
2019-01-11T10:37:07.479Z,18.60
2019-01-11T10:39:36.956Z,21.83
2019-01-11T10:42:05.532Z,21.27
2019-01-11T10:44:33.999Z,21.40
2019-01-11T10:47:02.694Z,18.70
2019-01-11T10:49:31.183Z,27.90
2019-01-11T10:51:59.795Z,16.40
2019-01-11T10:54:33.987Z,18.80
2019-01-11T10:57:03.222Z,16.47
2019-01-11T10:59:31.707Z,15.33
2019-01-11T11:02:00.239Z,14.80
2019-01-11T11:04:28.827Z,18.13
2019-01-11T11:06:57.311Z,18.90
2019-01-11T11:09:25.838Z,19.70
2019-01-11T11:11:54.531Z,17.57
2019-01-11T11:14:23.063Z,17.40
2019-01-11T11:16:51.591Z,17.40
2019-01-11T11:19:20.099Z,18.03
2019-01-11T11:21:48.595Z,13.33
2019-01-11T11:24:17.146Z,17.97
2019-01-11T11:26:45.694Z,16.30
2019-01-11T11:29:14.298Z,14.57
2019-01-11T11:31:42.922Z,14.73
2019-01-11T11:34:11.758Z,16.23
2019-01-11T11:36:40.570Z,15.57
2019-01-11T11:39:11.078Z,15.70
2019-01-11T11:41:39.962Z,12.57
2019-01-11T11:44:08.474Z,13.13
2019-01-11T11:46:36.986Z,15.70
2019-01-11T11:49:05.795Z,13.87
2019-01-11T11:51:34.274Z,11.63
2019-01-11T11:54:02.827Z,12.93
2019-01-11T11:56:31.646Z,11.57
2019-01-11T11:59:00.286Z,11.20
2019-01-11T12:01:29.106Z,13.40
2019-01-11T12:03:57.730Z,9.23
2019-01-11T12:06:26.243Z,12.23
2019-01-11T12:08:54.734Z,13.13
2019-01-11T12:11:23.337Z,12.33
2019-01-11T12:13:51.810Z,11.63
2019-01-11T12:16:20.382Z,14.90
2019-01-11T12:18:49.226Z,11.03
2019-01-11T12:21:17.787Z,10.28
2019-01-11T12:23:46.582Z,11.23
2019-01-11T12:26:15.166Z,13.03
2019-01-11T12:28:43.658Z,14.33
2019-01-11T12:31:12.231Z,11.07
2019-01-11T12:33:41.158Z,15.10
2019-01-11T12:36:09.670Z,14.77
2019-01-11T12:38:38.497Z,17.20
2019-01-11T12:41:07.143Z,14.80
2019-01-11T12:43:35.722Z,15.50
2019-01-11T12:46:04.670Z,14.40
2019-01-11T12:48:33.184Z,14.30
2019-01-11T12:51:01.750Z,14.70
2019-01-11T12:53:30.354Z,16.07
2019-01-11T12:55:58.994Z,16.83
2019-01-11T12:58:27.506Z,19.27
2019-01-11T13:00:56.054Z,16.77
2019-01-11T13:03:24.582Z,17.90
2019-01-11T13:05:53.074Z,17.93
2019-01-11T13:08:21.906Z,12.95
2019-01-11T13:10:50.453Z,16.13
2019-01-11T13:13:18.994Z,14.27
2019-01-11T13:15:47.554Z,16.17
2019-01-11T13:18:16.098Z,16.77
2019-01-11T13:20:44.607Z,13.20
2019-01-11T13:23:14.114Z,14.87
2019-01-11T13:25:42.738Z,17.13
2019-01-11T13:28:11.266Z,19.98
2019-01-11T13:30:40.098Z,18.70
2019-01-11T13:33:08.725Z,18.30
2019-01-11T13:35:37.305Z,18.27
2019-01-11T13:38:05.878Z,20.57
2019-01-11T13:40:34.862Z,19.20
2019-01-11T13:43:03.487Z,18.60
2019-01-11T13:45:32.077Z,18.37
2019-01-11T13:48:00.601Z,20.10
2019-01-11T13:50:35.766Z,23.17
2019-01-11T13:53:06.169Z,20.37
2019-01-11T13:55:34.758Z,19.23
2019-01-11T13:58:03.315Z,20.20
2019-01-11T14:00:32.003Z,20.77
2019-01-11T14:03:01.422Z,20.83
2019-01-11T14:05:29.957Z,15.97
2019-01-11T14:07:58.465Z,18.50
2019-01-11T14:10:27.034Z,21.40
2019-01-11T14:12:55.730Z,20.63
2019-01-11T14:15:24.434Z,21.87
2019-01-11T14:17:53.078Z,18.77
2019-01-11T14:20:21.629Z,22.77
2019-01-11T14:22:50.199Z,20.60
2019-01-11T14:25:19.586Z,23.03
2019-01-11T14:27:48.313Z,20.60
2019-01-11T14:30:16.933Z,18.80
2019-01-11T14:32:46.734Z,18.40
2019-01-11T14:35:15.613Z,21.70
2019-01-11T14:37:44.651Z,22.57
2019-01-11T14:40:14.183Z,19.13
2019-01-11T14:42:43.039Z,22.43
2019-01-11T14:45:13.355Z,19.33
2019-01-11T14:47:42.515Z,21.23
2019-01-11T14:50:14.067Z,21.10
2019-01-11T14:52:42.789Z,18.90
2019-01-11T14:55:11.424Z,17.13
2019-01-11T14:57:40.163Z,20.00
2019-01-11T15:00:12.579Z,20.53
2019-01-11T15:02:41.227Z,20.27
2019-01-11T15:05:11.187Z,20.93
2019-01-11T15:07:39.749Z,16.93
2019-01-11T15:10:10.369Z,15.63
2019-01-11T15:12:39.180Z,18.73
2019-01-11T15:15:08.065Z,17.27
2019-01-11T15:17:36.599Z,14.27
2019-01-11T15:20:06.619Z,19.23
2019-01-11T15:22:35.235Z,19.87
2019-01-11T15:25:05.598Z,18.53
2019-01-11T15:27:34.460Z,17.37
2019-01-11T15:30:03.238Z,17.30
2019-01-11T15:32:31.786Z,16.90
2019-01-11T15:35:00.361Z,17.73
2019-01-11T15:37:28.965Z,17.07
2019-01-11T15:39:57.489Z,17.70
2019-01-11T15:42:26.417Z,15.93
2019-01-11T15:44:54.928Z,16.90
2019-01-11T15:47:23.923Z,15.33
2019-01-11T15:49:52.524Z,17.60
2019-01-11T15:52:21.068Z,22.60
2019-01-11T15:54:49.626Z,14.27
2019-01-11T15:57:18.548Z,15.30
2019-01-11T16:00:01.512Z,15.27
2019-01-11T16:02:30.428Z,13.00
2019-01-11T16:05:00.286Z,15.53
2019-01-11T16:07:29.892Z,16.80
2019-01-11T16:10:07.816Z,16.50
2019-01-11T16:13:48.107Z,15.33
2019-01-11T16:16:23.392Z,9.68
2019-01-11T16:18:53.455Z,16.17
2019-01-11T16:21:22.012Z,18.10
2019-01-11T16:23:50.559Z,16.57
2019-01-11T16:26:19.427Z,16.40
2019-01-11T16:28:47.967Z,13.10
2019-01-11T16:31:17.145Z,17.17
2019-01-11T16:33:45.767Z,10.93
2019-01-11T16:36:14.575Z,14.90
2019-01-11T16:38:43.271Z,16.47
2019-01-11T16:41:11.947Z,14.47
2019-01-11T16:43:40.459Z,14.80
2019-01-11T16:46:09.016Z,13.20
2019-01-11T16:48:37.664Z,13.83
2019-01-11T16:51:06.467Z,13.70
2019-01-11T16:53:34.963Z,8.87
2019-01-11T16:56:03.647Z,16.83
2019-01-11T16:58:32.171Z,18.30
2019-01-11T17:01:00.807Z,16.77
2019-01-11T17:03:29.411Z,16.10
2019-01-11T17:05:57.947Z,12.00
2019-01-11T17:08:27.239Z,13.17
2019-01-11T17:10:55.791Z,14.20
2019-01-11T17:13:24.339Z,13.30
2019-01-11T17:15:53.115Z,15.20
2019-01-11T17:18:22.035Z,14.43
2019-01-11T17:20:50.571Z,15.83
2019-01-11T17:23:19.147Z,8.37
2019-01-11T17:25:48.747Z,8.30
2019-01-11T17:28:17.381Z,4.23
2019-01-11T17:30:46.154Z,2.53
2019-01-11T17:33:14.971Z,4.67
2019-01-11T17:35:43.467Z,4.53
2019-01-11T17:38:11.987Z,3.87
2019-01-11T17:40:40.827Z,2.53
2019-01-11T17:43:09.835Z,2.60
2019-01-11T17:45:38.390Z,4.50
2019-01-11T17:48:07.103Z,3.40
2019-01-11T17:50:35.999Z,4.07
2019-01-11T17:53:04.877Z,4.73
2019-01-11T17:55:33.535Z,3.75
2019-01-11T17:58:02.739Z,3.13
2019-01-11T18:00:31.375Z,3.20
2019-01-11T18:03:00.167Z,1.73
2019-01-11T18:05:28.915Z,1.97
2019-01-11T18:07:57.540Z,1.33
2019-01-11T18:10:26.207Z,2.27
2019-01-11T18:12:55.025Z,2.97
2019-01-11T18:15:23.683Z,3.47
2019-01-11T18:17:52.792Z,3.53
2019-01-11T18:20:24.493Z,1.73
2019-01-11T18:22:53.059Z,2.97
2019-01-11T18:25:21.584Z,1.67
2019-01-11T18:27:50.184Z,2.03
2019-01-11T18:30:18.809Z,2.47
2019-01-11T18:32:47.451Z,1.30
2019-01-11T18:35:16.064Z,2.30
2019-01-11T18:37:44.605Z,2.53
2019-01-11T18:40:16.240Z,2.97
2019-01-11T18:42:44.759Z,3.17
2019-01-11T18:45:13.824Z,1.67
2019-01-11T18:47:42.443Z,1.37
2019-01-11T18:50:14.027Z,1.73
2019-01-11T18:52:42.588Z,2.97
2019-01-11T18:55:11.207Z,2.45
2019-01-11T18:57:39.744Z,2.10
2019-01-11T19:00:12.271Z,1.83
2019-01-11T19:02:40.998Z,2.97
2019-01-11T19:05:11.040Z,2.53
2019-01-11T19:07:45.917Z,2.33
2019-01-11T19:10:10.612Z,2.17
2019-01-11T19:12:39.238Z,2.23
2019-01-11T19:15:10.191Z,2.47
2019-01-11T19:17:38.896Z,0.80
2019-01-11T19:20:13.127Z,3.10
2019-01-11T19:22:41.867Z,2.40
2019-01-11T19:25:12.480Z,3.75
2019-01-11T19:27:41.328Z,2.23
2019-01-11T19:30:13.783Z,3.43
2019-01-11T19:32:42.396Z,4.37
2019-01-11T19:35:11.955Z,2.90
2019-01-11T19:37:41.483Z,2.97
2019-01-11T19:40:10.584Z,2.17
2019-01-11T19:42:39.223Z,2.07
2019-01-11T19:45:09.607Z,2.53
2019-01-11T19:47:38.516Z,5.80
2019-01-11T19:50:10.167Z,1.70
2019-01-11T19:52:38.731Z,3.33
2019-01-11T19:55:07.460Z,3.80
2019-01-11T19:57:36.068Z,2.77
2019-01-11T20:00:07.064Z,2.90
2019-01-11T20:02:37.323Z,3.43
2019-01-11T20:05:06.324Z,3.00
2019-01-11T20:07:34.892Z,2.70
2019-01-11T20:10:03.787Z,2.60
2019-01-11T20:12:32.424Z,2.37
2019-01-11T20:15:01.184Z,2.67
2019-01-11T20:17:29.740Z,4.65
2019-01-11T20:19:58.419Z,3.93
2019-01-11T20:22:27.065Z,2.13
2019-01-11T20:24:56.419Z,4.20
2019-01-11T20:27:25.039Z,3.30
2019-01-11T20:29:53.622Z,2.77
2019-01-11T20:32:22.283Z,3.80
2019-01-11T20:34:50.807Z,3.83
2019-01-11T20:37:25.263Z,2.80
2019-01-11T20:39:53.875Z,3.83
2019-01-11T20:42:22.867Z,3.33
2019-01-11T20:44:51.470Z,3.73
2019-01-11T20:47:20.128Z,2.70
2019-01-11T20:49:48.827Z,2.77
2019-01-11T20:52:17.443Z,4.93
2019-01-11T20:54:46.383Z,3.40
2019-01-11T20:57:15.006Z,3.90
2019-01-11T20:59:43.695Z,3.90
2019-01-11T21:02:12.566Z,3.10
2019-01-11T21:04:41.387Z,3.40
2019-01-11T21:07:10.030Z,2.30
2019-01-11T21:09:38.803Z,2.13
2019-01-11T21:12:07.499Z,4.17
2019-01-11T21:14:36.158Z,2.77
2019-01-11T21:17:04.990Z,3.07
2019-01-11T21:19:33.574Z,3.23
2019-01-11T21:22:02.267Z,2.67
2019-01-11T21:24:30.874Z,2.67
2019-01-11T21:26:59.422Z,2.93
2019-01-11T21:29:28.090Z,2.67
2019-01-11T21:31:56.758Z,2.87
2019-01-11T21:34:25.366Z,3.20
2019-01-11T21:36:53.922Z,2.20
2019-01-11T21:39:22.567Z,3.07
2019-01-11T21:42:05.719Z,2.23
2019-01-11T21:44:34.350Z,2.00
2019-01-11T21:47:03.414Z,2.27
2019-01-11T21:49:32.167Z,2.43
2019-01-11T21:52:00.811Z,2.57
2019-01-11T21:54:29.519Z,1.80
2019-01-11T21:56:58.883Z,3.30
2019-01-11T21:59:27.760Z,3.27
2019-01-11T22:01:57.196Z,3.43
2019-01-11T22:04:25.850Z,3.43
2019-01-11T22:06:55.534Z,2.27
2019-01-11T22:09:24.620Z,3.22
2019-01-11T22:11:53.292Z,3.80
2019-01-11T22:14:25.088Z,2.77
2019-01-11T22:16:53.952Z,2.80
2019-01-11T22:19:22.684Z,4.28
2019-01-11T22:21:51.780Z,2.23
2019-01-11T22:24:20.757Z,3.13
2019-01-11T22:26:49.684Z,2.07
2019-01-11T22:29:18.808Z,2.40
2019-01-11T22:31:47.744Z,2.13
2019-01-11T22:34:16.337Z,1.83
2019-01-11T22:36:45.167Z,1.50
2019-01-11T22:39:14.001Z,2.13
2019-01-11T22:41:42.929Z,0.63
2019-01-11T22:44:29.639Z,1.63
2019-01-11T22:47:01.180Z,0.70
2019-01-11T22:49:30.240Z,1.37
2019-01-11T22:51:59.488Z,1.37
2019-01-11T22:54:28.224Z,1.60
2019-01-11T22:56:56.880Z,0.87
2019-01-11T22:59:25.787Z,1.27
2019-01-11T23:02:02.349Z,2.60
2019-01-11T23:04:31.372Z,2.07
2019-01-11T23:07:21.612Z,0.97
2019-01-11T23:09:54.219Z,1.70
2019-01-11T23:12:45.415Z,2.35
2019-01-11T23:15:20.536Z,2.27
2019-01-11T23:17:56.112Z,2.47
2019-01-11T23:20:25.778Z,0.30
2019-01-11T23:22:54.279Z,1.83
2019-01-11T23:25:22.955Z,2.20
2019-01-11T23:27:51.551Z,1.13
2019-01-11T23:30:20.705Z,2.23
2019-01-11T23:32:53.243Z,0.73
2019-01-11T23:35:21.779Z,0.67
2019-01-11T23:37:53.095Z,1.27
2019-01-11T23:40:21.627Z,0.80
2019-01-11T23:42:50.131Z,1.80
2019-01-11T23:45:18.699Z,1.07
2019-01-11T23:47:49.636Z,1.53
2019-01-11T23:50:18.931Z,0.37
2019-01-11T23:52:47.463Z,0.87
2019-01-11T23:55:16.139Z,1.33
2019-01-11T23:57:44.813Z,0.57
